DAL9409 KMIA-KSEA
Flight info
| Callsign | DAL9409 |
|---|---|
| Flight time | N/A |
| Altitude | 38000 |
| Route | HURCN4 SMELZ Q116 JAWJA MEMFS/N0484F400 BUM DRABS PECKS GCC BIL MLP GLASR3 |
| Aircraft | A359/H-SDE2E3GHIJ3J4J5LM1ORWXY/LB1D1 |
Departure
| Time | 2026-05-05 16:26 |
|---|---|
| Airport | Miami International Airport (KMIA) |
Arrival
| Time | N/A |
|---|---|
| Airport | Seattle–Tacoma International Airport (KSEA) |
| Time | Latitude | Longitude | Altitude | Speed | Heading |
|---|---|---|---|---|---|
| 2026-05-05 16:09 | 25.79107 | -80.27424 | 21 ft | 0 kts | 110° |
| 2026-05-05 16:15 | 25.79111 | -80.27436 | 21 ft | 4 kts | 110° |
| 2026-05-05 16:16 | 25.79132 | -80.27485 | 25 ft | 4 kts | 143° |
| 2026-05-05 16:16 | 25.79170 | -80.27496 | 25 ft | 0 kts | 177° |
| 2026-05-05 16:18 | 25.79168 | -80.27496 | 25 ft | 3 kts | 177° |
| 2026-05-05 16:18 | 25.79071 | -80.27491 | 23 ft | 9 kts | 177° |
| 2026-05-05 16:19 | 25.79003 | -80.27496 | 24 ft | 10 kts | 198° |
| 2026-05-05 16:19 | 25.78968 | -80.27561 | 23 ft | 11 kts | 255° |
| 2026-05-05 16:19 | 25.78943 | -80.27745 | 21 ft | 14 kts | 268° |
| 2026-05-05 16:20 | 25.78957 | -80.27965 | 26 ft | 15 kts | 296° |
| 2026-05-05 16:20 | 25.79064 | -80.28177 | 24 ft | 16 kts | 300° |
| 2026-05-05 16:21 | 25.79197 | -80.28397 | 25 ft | 18 kts | 319° |
| 2026-05-05 16:22 | 25.79399 | -80.28763 | 25 ft | 19 kts | 300° |
| 2026-05-05 16:22 | 25.79536 | -80.29032 | 24 ft | 21 kts | 298° |
| 2026-05-05 16:23 | 25.79683 | -80.29318 | 24 ft | 22 kts | 299° |
| 2026-05-05 16:23 | 25.79759 | -80.29468 | 25 ft | 23 kts | 299° |
| 2026-05-05 16:23 | 25.79892 | -80.29789 | 22 ft | 23 kts | 268° |
| 2026-05-05 16:24 | 25.79899 | -80.29941 | 22 ft | 15 kts | 283° |
| 2026-05-05 16:24 | 25.79948 | -80.30038 | 24 ft | 14 kts | 306° |
| 2026-05-05 16:24 | 25.80014 | -80.30118 | 23 ft | 7 kts | 337° |
| 2026-05-05 16:25 | 25.80057 | -80.30105 | 23 ft | 7 kts | 48° |
| 2026-05-05 16:25 | 25.80103 | -80.29647 | 20 ft | 83 kts | 88° |
| 2026-05-05 16:25 | 25.80129 | -80.28789 | 26 ft | 139 kts | 87° |
| 2026-05-05 16:26 | 25.80208 | -80.26206 | 585 ft | 184 kts | 84° |
| 2026-05-05 16:26 | 25.80417 | -80.23449 | 1797 ft | 192 kts | 85° |
| 2026-05-05 16:27 | 25.80490 | -80.21865 | 1966 ft | 219 kts | 86° |
| 2026-05-05 16:27 | 25.80547 | -80.20106 | 2245 ft | 242 kts | 85° |
| 2026-05-05 16:27 | 25.80703 | -80.18191 | 2791 ft | 255 kts | 74° |
| 2026-05-05 16:27 | 25.81604 | -80.16516 | 3377 ft | 259 kts | 40° |
| 2026-05-05 16:28 | 25.83233 | -80.15701 | 4018 ft | 262 kts | 5° |
| 2026-05-05 16:28 | 25.85068 | -80.15649 | 4775 ft | 267 kts | 358° |
| 2026-05-05 16:28 | 25.86941 | -80.15678 | 5540 ft | 272 kts | 358° |
| 2026-05-05 16:28 | 25.88840 | -80.15704 | 6310 ft | 274 kts | 354° |
| 2026-05-05 16:29 | 25.90709 | -80.16120 | 7098 ft | 275 kts | 341° |
| 2026-05-05 16:29 | 25.92536 | -80.16751 | 8039 ft | 277 kts | 340° |
| 2026-05-05 16:29 | 25.94379 | -80.17412 | 8964 ft | 279 kts | 339° |
| 2026-05-05 16:29 | 25.96234 | -80.18081 | 9758 ft | 282 kts | 339° |
| 2026-05-05 16:30 | 25.98023 | -80.19000 | 10352 ft | 287 kts | 323° |
| 2026-05-05 16:30 | 25.99407 | -80.20626 | 10631 ft | 299 kts | 298° |
| 2026-05-05 16:30 | 26.00293 | -80.22784 | 10941 ft | 315 kts | 290° |
| 2026-05-05 16:30 | 26.01105 | -80.25120 | 11227 ft | 332 kts | 290° |
| 2026-05-05 16:31 | 26.01960 | -80.27561 | 11529 ft | 346 kts | 290° |
| 2026-05-05 16:31 | 26.02855 | -80.30082 | 11987 ft | 354 kts | 290° |
| 2026-05-05 16:31 | 26.03769 | -80.32634 | 12565 ft | 357 kts | 290° |
| 2026-05-05 16:31 | 26.04693 | -80.35207 | 13155 ft | 360 kts | 290° |
| 2026-05-05 16:32 | 26.05624 | -80.37795 | 13775 ft | 362 kts | 290° |
| 2026-05-05 16:32 | 26.06551 | -80.40368 | 14272 ft | 365 kts | 291° |
| 2026-05-05 16:32 | 26.07511 | -80.43033 | 14783 ft | 367 kts | 291° |
| 2026-05-05 16:32 | 26.08447 | -80.45635 | 15304 ft | 368 kts | 291° |
| 2026-05-05 16:33 | 26.09413 | -80.48320 | 15824 ft | 370 kts | 291° |
| 2026-05-05 16:33 | 26.10357 | -80.50946 | 16323 ft | 372 kts | 291° |
| 2026-05-05 16:33 | 26.11317 | -80.53618 | 16826 ft | 373 kts | 291° |
| 2026-05-05 16:33 | 26.12382 | -80.56253 | 17345 ft | 375 kts | 298° |
| 2026-05-05 16:34 | 26.13940 | -80.58583 | 17842 ft | 378 kts | 313° |
| 2026-05-05 16:34 | 26.16055 | -80.60345 | 18361 ft | 384 kts | 328° |
| 2026-05-05 16:34 | 26.18489 | -80.61618 | 18811 ft | 388 kts | 333° |
| 2026-05-05 16:34 | 26.20986 | -80.62796 | 19213 ft | 392 kts | 333° |
| 2026-05-05 16:35 | 26.23507 | -80.63982 | 19621 ft | 394 kts | 333° |
| 2026-05-05 16:35 | 26.26036 | -80.65180 | 20049 ft | 396 kts | 333° |
| 2026-05-05 16:35 | 26.28576 | -80.66389 | 20481 ft | 398 kts | 333° |
| 2026-05-05 16:35 | 26.31116 | -80.67602 | 20928 ft | 399 kts | 333° |
| 2026-05-05 16:36 | 26.33690 | -80.68835 | 21340 ft | 402 kts | 332° |
| 2026-05-05 16:36 | 26.36258 | -80.70066 | 21773 ft | 404 kts | 332° |
| 2026-05-05 16:36 | 26.38817 | -80.71387 | 22192 ft | 404 kts | 327° |
| 2026-05-05 16:36 | 26.41115 | -80.73146 | 22618 ft | 400 kts | 316° |
| 2026-05-05 16:37 | 26.43091 | -80.75327 | 23036 ft | 400 kts | 310° |
| 2026-05-05 16:37 | 26.44984 | -80.77615 | 23439 ft | 402 kts | 310° |
| 2026-05-05 16:37 | 26.46877 | -80.79922 | 23820 ft | 404 kts | 310° |
| 2026-05-05 16:37 | 26.48783 | -80.82240 | 24156 ft | 406 kts | 310° |
| 2026-05-05 16:38 | 26.50781 | -80.84486 | 24513 ft | 410 kts | 316° |
| 2026-05-05 16:38 | 26.53010 | -80.86497 | 24899 ft | 413 kts | 320° |
| 2026-05-05 16:38 | 26.55329 | -80.88404 | 25318 ft | 416 kts | 321° |
| 2026-05-05 16:38 | 26.57700 | -80.90269 | 25735 ft | 418 kts | 322° |
| 2026-05-05 16:39 | 26.60091 | -80.92120 | 26244 ft | 418 kts | 322° |
| 2026-05-05 16:39 | 26.62482 | -80.93968 | 26711 ft | 419 kts | 322° |
| 2026-05-05 16:39 | 26.64882 | -80.95834 | 27106 ft | 421 kts | 322° |
| 2026-05-05 16:39 | 26.67288 | -80.97719 | 27509 ft | 424 kts | 322° |
| 2026-05-05 16:40 | 26.69704 | -80.99621 | 27925 ft | 426 kts | 322° |
| 2026-05-05 16:40 | 26.72129 | -81.01536 | 28327 ft | 428 kts | 322° |
| 2026-05-05 16:40 | 26.74536 | -81.03441 | 28722 ft | 430 kts | 322° |
| 2026-05-05 16:40 | 26.76981 | -81.05379 | 29118 ft | 432 kts | 322° |
| 2026-05-05 16:41 | 26.79441 | -81.07329 | 29497 ft | 434 kts | 322° |
| 2026-05-05 16:41 | 26.81913 | -81.09289 | 29856 ft | 436 kts | 322° |
| 2026-05-05 16:41 | 26.84396 | -81.11258 | 30180 ft | 439 kts | 323° |
| 2026-05-05 16:41 | 26.86888 | -81.13236 | 30487 ft | 440 kts | 323° |
| 2026-05-05 16:42 | 26.89387 | -81.15219 | 30824 ft | 440 kts | 323° |
| 2026-05-05 16:42 | 26.91884 | -81.17202 | 31205 ft | 440 kts | 322° |
| 2026-05-05 16:42 | 26.94379 | -81.19183 | 31583 ft | 438 kts | 322° |
| 2026-05-05 16:42 | 26.96843 | -81.21142 | 32115 ft | 433 kts | 322° |
| 2026-05-05 16:43 | 26.99298 | -81.23094 | 32677 ft | 428 kts | 322° |
| 2026-05-05 16:43 | 27.01709 | -81.25013 | 33204 ft | 423 kts | 323° |
| 2026-05-05 16:43 | 27.04101 | -81.26918 | 33714 ft | 419 kts | 323° |
| 2026-05-05 16:43 | 27.06469 | -81.28805 | 34145 ft | 416 kts | 323° |
| 2026-05-05 16:44 | 27.08824 | -81.30683 | 34392 ft | 416 kts | 323° |
| 2026-05-05 16:44 | 27.11183 | -81.32567 | 34665 ft | 416 kts | 323° |
| 2026-05-05 16:44 | 27.13539 | -81.34448 | 34957 ft | 415 kts | 323° |
| 2026-05-05 16:44 | 27.15886 | -81.36323 | 35260 ft | 413 kts | 323° |
| 2026-05-05 16:45 | 27.18224 | -81.38191 | 35563 ft | 412 kts | 323° |
| 2026-05-05 16:45 | 27.20549 | -81.40051 | 35849 ft | 410 kts | 323° |
| 2026-05-05 16:45 | 27.22868 | -81.41905 | 36225 ft | 407 kts | 323° |
| 2026-05-05 16:45 | 27.25164 | -81.43742 | 36573 ft | 404 kts | 323° |
| 2026-05-05 16:46 | 27.27452 | -81.45574 | 36840 ft | 403 kts | 323° |
| 2026-05-05 16:46 | 27.29731 | -81.47401 | 37090 ft | 402 kts | 323° |
| 2026-05-05 16:46 | 27.32007 | -81.49225 | 37319 ft | 401 kts | 323° |
| 2026-05-05 16:46 | 27.34276 | -81.51045 | 37568 ft | 400 kts | 323° |
| 2026-05-05 16:47 | 27.36539 | -81.52861 | 37798 ft | 399 kts | 323° |
| 2026-05-05 16:47 | 27.38796 | -81.54673 | 38009 ft | 398 kts | 323° |
| 2026-05-05 16:47 | 27.43325 | -81.58312 | 38059 ft | 400 kts | 323° |
| 2026-05-05 16:48 | 27.47827 | -81.61933 | 38062 ft | 400 kts | 323° |
| 2026-05-05 16:48 | 27.52356 | -81.65579 | 38068 ft | 400 kts | 323° |
| 2026-05-05 16:49 | 27.56890 | -81.69233 | 38062 ft | 402 kts | 323° |
| 2026-05-05 16:49 | 27.61447 | -81.72909 | 38078 ft | 403 kts | 323° |
| 2026-05-05 16:50 | 27.66002 | -81.76587 | 38084 ft | 403 kts | 323° |
| 2026-05-05 16:50 | 27.70555 | -81.80268 | 38086 ft | 403 kts | 323° |
| 2026-05-05 16:51 | 27.75107 | -81.83951 | 38090 ft | 403 kts | 323° |
| 2026-05-05 16:51 | 27.79662 | -81.87641 | 38074 ft | 403 kts | 323° |
| 2026-05-05 16:52 | 27.84209 | -81.91328 | 38086 ft | 402 kts | 322° |
| 2026-05-05 16:52 | 27.88765 | -81.95027 | 38084 ft | 404 kts | 322° |
| 2026-05-05 16:53 | 27.93332 | -81.98740 | 38093 ft | 404 kts | 322° |
| 2026-05-05 16:53 | 27.97899 | -82.02455 | 38088 ft | 404 kts | 322° |
| 2026-05-05 16:54 | 28.02461 | -82.06170 | 38094 ft | 404 kts | 322° |
| 2026-05-05 16:54 | 28.06260 | -82.09266 | 38086 ft | 404 kts | 322° |
| 2026-05-05 16:55 | 28.11576 | -82.13573 | 38092 ft | 405 kts | 323° |
| 2026-05-05 16:55 | 28.15438 | -82.16643 | 38135 ft | 405 kts | 323° |
| 2026-05-05 16:56 | 28.20036 | -82.20294 | 38110 ft | 403 kts | 323° |
| 2026-05-05 16:56 | 28.24623 | -82.23951 | 38114 ft | 403 kts | 323° |
| 2026-05-05 16:57 | 28.29209 | -82.27617 | 38107 ft | 403 kts | 322° |
| 2026-05-05 16:57 | 28.33790 | -82.31286 | 38098 ft | 403 kts | 322° |
| 2026-05-05 16:58 | 28.38345 | -82.34937 | 38098 ft | 403 kts | 322° |
| 2026-05-05 16:58 | 28.42928 | -82.38613 | 38102 ft | 403 kts | 322° |
| 2026-05-05 16:59 | 28.47510 | -82.42292 | 38104 ft | 403 kts | 322° |
| 2026-05-05 16:59 | 28.52085 | -82.45969 | 38100 ft | 402 kts | 322° |
| 2026-05-05 17:00 | 28.56651 | -82.49645 | 38099 ft | 402 kts | 322° |
| 2026-05-05 17:00 | 28.61215 | -82.53322 | 38069 ft | 402 kts | 322° |
| 2026-05-05 17:01 | 28.65777 | -82.57002 | 38067 ft | 402 kts | 322° |
| 2026-05-05 17:01 | 28.70337 | -82.60684 | 38070 ft | 402 kts | 322° |
| 2026-05-05 17:02 | 28.74899 | -82.64372 | 38070 ft | 402 kts | 322° |
| 2026-05-05 17:02 | 28.79458 | -82.68061 | 38071 ft | 401 kts | 322° |
| 2026-05-05 17:03 | 28.83973 | -82.71718 | 38096 ft | 400 kts | 322° |
| 2026-05-05 17:03 | 28.88502 | -82.75391 | 38093 ft | 400 kts | 322° |
| 2026-05-05 17:04 | 28.93041 | -82.79076 | 38082 ft | 400 kts | 322° |
| 2026-05-05 17:04 | 28.97590 | -82.82774 | 38087 ft | 402 kts | 322° |
| 2026-05-05 17:05 | 29.02144 | -82.86479 | 38082 ft | 402 kts | 322° |
| 2026-05-05 17:05 | 29.06696 | -82.90188 | 38109 ft | 402 kts | 321° |
| 2026-05-05 17:06 | 29.11243 | -82.93889 | 38087 ft | 401 kts | 321° |
| 2026-05-05 17:06 | 29.15769 | -82.97588 | 38086 ft | 400 kts | 321° |
| 2026-05-05 17:07 | 29.20307 | -83.01299 | 38088 ft | 400 kts | 321° |
| 2026-05-05 17:07 | 29.24836 | -83.05006 | 38076 ft | 400 kts | 321° |
| 2026-05-05 17:08 | 29.29366 | -83.08720 | 38074 ft | 400 kts | 321° |
| 2026-05-05 17:08 | 29.33893 | -83.12431 | 38072 ft | 400 kts | 321° |
| 2026-05-05 17:09 | 29.38419 | -83.16144 | 38066 ft | 400 kts | 321° |
| 2026-05-05 17:09 | 29.42943 | -83.19861 | 38084 ft | 400 kts | 321° |
| 2026-05-05 17:10 | 29.47438 | -83.23561 | 38073 ft | 400 kts | 321° |
| 2026-05-05 17:10 | 29.51949 | -83.27277 | 37779 ft | 399 kts | 321° |
| 2026-05-05 17:11 | 29.56484 | -83.31019 | 37921 ft | 401 kts | 321° |
| 2026-05-05 17:11 | 29.58754 | -83.32891 | 38074 ft | 401 kts | 321° |
| 2026-05-05 17:11 | 29.61016 | -83.34759 | 38089 ft | 401 kts | 321° |
| 2026-05-05 17:12 | 29.65543 | -83.38500 | 38089 ft | 400 kts | 321° |
| 2026-05-05 17:12 | 29.70055 | -83.42233 | 38085 ft | 399 kts | 321° |
| 2026-05-05 17:13 | 29.74551 | -83.45958 | 38090 ft | 398 kts | 321° |
| 2026-05-05 17:13 | 29.79044 | -83.49684 | 38091 ft | 398 kts | 321° |
| 2026-05-05 17:14 | 29.83508 | -83.53391 | 38090 ft | 398 kts | 321° |
| 2026-05-05 17:14 | 29.88001 | -83.57125 | 38095 ft | 399 kts | 320° |
| 2026-05-05 17:15 | 29.92503 | -83.60870 | 38098 ft | 399 kts | 320° |
| 2026-05-05 17:15 | 29.97009 | -83.64620 | 38120 ft | 399 kts | 320° |
| 2026-05-05 17:16 | 30.01498 | -83.68360 | 38100 ft | 397 kts | 320° |
| 2026-05-05 17:16 | 30.05975 | -83.72095 | 38100 ft | 397 kts | 320° |
| 2026-05-05 17:17 | 30.10455 | -83.75838 | 38098 ft | 397 kts | 320° |
| 2026-05-05 17:17 | 30.14929 | -83.79581 | 38095 ft | 397 kts | 320° |
| 2026-05-05 17:18 | 30.19111 | -83.83708 | 38091 ft | 394 kts | 313° |
| 2026-05-05 17:18 | 30.22996 | -83.88178 | 38089 ft | 394 kts | 312° |
| 2026-05-05 17:19 | 30.26831 | -83.92701 | 38096 ft | 394 kts | 312° |
| 2026-05-05 17:19 | 30.30657 | -83.97225 | 38086 ft | 393 kts | 312° |
| 2026-05-05 17:20 | 30.34484 | -84.01742 | 38087 ft | 393 kts | 312° |
| 2026-05-05 17:20 | 30.38309 | -84.06254 | 38089 ft | 393 kts | 312° |
| 2026-05-05 17:21 | 30.42110 | -84.10743 | 38086 ft | 393 kts | 312° |
| 2026-05-05 17:22 | 30.47844 | -84.17523 | 38086 ft | 393 kts | 312° |
| 2026-05-05 17:22 | 30.51667 | -84.22052 | 38087 ft | 393 kts | 312° |
| 2026-05-05 17:23 | 30.55491 | -84.26587 | 38089 ft | 393 kts | 312° |
| 2026-05-05 17:23 | 30.59310 | -84.31120 | 38083 ft | 393 kts | 311° |
| 2026-05-05 17:24 | 30.63126 | -84.35657 | 38082 ft | 393 kts | 311° |
| 2026-05-05 17:24 | 30.66942 | -84.40200 | 38075 ft | 393 kts | 311° |
| 2026-05-05 17:25 | 30.70759 | -84.44749 | 38073 ft | 393 kts | 311° |
| 2026-05-05 17:25 | 30.74567 | -84.49293 | 38076 ft | 393 kts | 311° |
| 2026-05-05 17:26 | 30.78380 | -84.53847 | 38071 ft | 393 kts | 311° |
| 2026-05-05 17:26 | 30.82189 | -84.58404 | 38072 ft | 393 kts | 311° |
| 2026-05-05 17:27 | 30.86000 | -84.62966 | 38082 ft | 393 kts | 311° |
| 2026-05-05 17:27 | 30.89797 | -84.67517 | 38066 ft | 391 kts | 311° |
| 2026-05-05 17:28 | 30.93591 | -84.72071 | 38069 ft | 391 kts | 311° |
| 2026-05-05 17:28 | 30.97356 | -84.76597 | 38089 ft | 391 kts | 311° |
| 2026-05-05 17:29 | 31.01148 | -84.81159 | 38088 ft | 392 kts | 311° |
| 2026-05-05 17:29 | 31.04936 | -84.85722 | 38081 ft | 392 kts | 311° |
| 2026-05-05 17:30 | 31.08723 | -84.90291 | 38078 ft | 392 kts | 311° |
| 2026-05-05 17:30 | 31.12508 | -84.94862 | 38080 ft | 391 kts | 311° |
| 2026-05-05 17:31 | 31.16287 | -84.99430 | 38096 ft | 391 kts | 311° |
| 2026-05-05 17:31 | 31.20050 | -85.03985 | 38084 ft | 389 kts | 310° |
| 2026-05-05 17:32 | 31.23807 | -85.08539 | 38081 ft | 389 kts | 310° |
| 2026-05-05 17:32 | 31.27565 | -85.13101 | 38080 ft | 390 kts | 310° |
| 2026-05-05 17:33 | 31.31300 | -85.17639 | 38075 ft | 390 kts | 310° |
| 2026-05-05 17:33 | 31.35057 | -85.22209 | 38081 ft | 390 kts | 310° |
| 2026-05-05 17:34 | 31.38814 | -85.26786 | 38078 ft | 390 kts | 310° |
| 2026-05-05 17:34 | 31.42564 | -85.31359 | 38103 ft | 390 kts | 310° |
| 2026-05-05 17:35 | 31.46316 | -85.35940 | 38116 ft | 389 kts | 310° |
| 2026-05-05 17:35 | 31.50056 | -85.40513 | 38092 ft | 388 kts | 310° |
| 2026-05-05 17:36 | 31.53776 | -85.45067 | 38083 ft | 388 kts | 310° |
| 2026-05-05 17:36 | 31.57508 | -85.49641 | 38064 ft | 388 kts | 310° |
| 2026-05-05 17:37 | 31.61236 | -85.54215 | 38047 ft | 388 kts | 310° |
| 2026-05-05 17:37 | 31.64955 | -85.58784 | 38062 ft | 388 kts | 310° |
| 2026-05-05 17:38 | 31.68682 | -85.63369 | 38067 ft | 388 kts | 310° |
| 2026-05-05 17:38 | 31.72402 | -85.67951 | 38049 ft | 388 kts | 310° |
| 2026-05-05 17:39 | 31.76111 | -85.72525 | 38062 ft | 387 kts | 310° |
| 2026-05-05 17:39 | 31.79823 | -85.77108 | 38070 ft | 386 kts | 310° |
| 2026-05-05 17:40 | 31.83514 | -85.81673 | 38075 ft | 387 kts | 310° |
| 2026-05-05 17:40 | 31.87218 | -85.86257 | 38078 ft | 387 kts | 310° |
| 2026-05-05 17:41 | 31.90918 | -85.90844 | 38078 ft | 386 kts | 310° |
| 2026-05-05 17:41 | 31.94624 | -85.95442 | 38080 ft | 387 kts | 310° |
| 2026-05-05 17:42 | 31.98296 | -86.00005 | 38078 ft | 387 kts | 310° |
| 2026-05-05 17:42 | 32.01997 | -86.04608 | 38093 ft | 387 kts | 310° |
| 2026-05-05 17:43 | 32.05684 | -86.09200 | 38068 ft | 386 kts | 310° |
| 2026-05-05 17:43 | 32.09367 | -86.13793 | 38060 ft | 385 kts | 310° |
| 2026-05-05 17:44 | 32.13053 | -86.18395 | 38045 ft | 386 kts | 309° |
| 2026-05-05 17:44 | 32.16736 | -86.23000 | 38043 ft | 385 kts | 309° |
| 2026-05-05 17:45 | 32.20415 | -86.27606 | 38060 ft | 386 kts | 309° |
| 2026-05-05 17:45 | 32.24090 | -86.32213 | 38063 ft | 386 kts | 309° |
| 2026-05-05 17:46 | 32.27146 | -86.36048 | 38060 ft | 386 kts | 309° |
| 2026-05-05 17:46 | 32.30823 | -86.40668 | 38075 ft | 385 kts | 309° |
| 2026-05-05 17:47 | 32.34477 | -86.45265 | 38039 ft | 385 kts | 309° |
| 2026-05-05 17:47 | 32.38140 | -86.49878 | 38035 ft | 385 kts | 309° |
| 2026-05-05 17:48 | 32.41804 | -86.54499 | 38028 ft | 385 kts | 309° |
| 2026-05-05 17:48 | 32.45467 | -86.59123 | 38026 ft | 385 kts | 309° |
| 2026-05-05 17:49 | 32.49127 | -86.63751 | 38034 ft | 385 kts | 309° |
| 2026-05-05 17:49 | 32.52783 | -86.68378 | 37989 ft | 385 kts | 309° |
| 2026-05-05 17:50 | 32.56438 | -86.73012 | 37971 ft | 385 kts | 309° |
| 2026-05-05 17:50 | 32.60092 | -86.77650 | 37988 ft | 384 kts | 309° |
| 2026-05-05 17:51 | 32.63720 | -86.82260 | 37958 ft | 385 kts | 309° |
| 2026-05-05 17:51 | 32.67364 | -86.86899 | 37977 ft | 384 kts | 309° |
| 2026-05-05 17:52 | 32.71009 | -86.91542 | 37976 ft | 384 kts | 309° |
| 2026-05-05 17:52 | 32.74655 | -86.96193 | 37984 ft | 385 kts | 309° |
| 2026-05-05 17:53 | 32.78292 | -87.00840 | 37977 ft | 384 kts | 309° |
| 2026-05-05 17:53 | 32.81937 | -87.05501 | 37991 ft | 384 kts | 309° |
| 2026-05-05 17:54 | 32.85573 | -87.10158 | 37997 ft | 384 kts | 309° |
| 2026-05-05 17:54 | 32.89208 | -87.14819 | 37996 ft | 384 kts | 309° |
| 2026-05-05 17:55 | 32.92842 | -87.19485 | 38002 ft | 384 kts | 309° |
| 2026-05-05 17:55 | 32.96475 | -87.24157 | 38003 ft | 384 kts | 309° |
| 2026-05-05 17:56 | 33.00104 | -87.28829 | 38003 ft | 384 kts | 309° |
| 2026-05-05 17:56 | 33.03735 | -87.33507 | 37983 ft | 384 kts | 308° |
| 2026-05-05 17:57 | 33.07356 | -87.38184 | 37997 ft | 383 kts | 308° |
| 2026-05-05 17:57 | 33.10976 | -87.42861 | 38010 ft | 383 kts | 308° |
| 2026-05-05 17:58 | 33.14593 | -87.47542 | 38036 ft | 383 kts | 308° |
| 2026-05-05 17:58 | 33.18194 | -87.52207 | 38036 ft | 383 kts | 308° |
| 2026-05-05 17:59 | 33.21792 | -87.56876 | 38037 ft | 383 kts | 308° |
| 2026-05-05 17:59 | 33.25398 | -87.61561 | 38035 ft | 383 kts | 308° |
| 2026-05-05 18:00 | 33.29000 | -87.66247 | 38035 ft | 383 kts | 308° |
| 2026-05-05 18:00 | 33.32575 | -87.70905 | 38024 ft | 382 kts | 308° |
| 2026-05-05 18:01 | 33.36167 | -87.75589 | 38007 ft | 382 kts | 308° |
| 2026-05-05 18:01 | 33.39744 | -87.80260 | 37989 ft | 382 kts | 308° |
| 2026-05-05 18:02 | 33.43330 | -87.84952 | 37971 ft | 382 kts | 308° |
| 2026-05-05 18:02 | 33.46906 | -87.89634 | 37949 ft | 382 kts | 308° |
| 2026-05-05 18:03 | 33.50489 | -87.94328 | 37945 ft | 382 kts | 308° |
| 2026-05-05 18:03 | 33.54060 | -87.99018 | 37946 ft | 382 kts | 308° |
| 2026-05-05 18:04 | 33.57642 | -88.03728 | 37942 ft | 382 kts | 308° |
| 2026-05-05 18:04 | 33.61220 | -88.08439 | 37942 ft | 382 kts | 308° |
| 2026-05-05 18:05 | 33.64802 | -88.13160 | 37952 ft | 382 kts | 308° |
| 2026-05-05 18:05 | 33.68379 | -88.17882 | 37967 ft | 382 kts | 308° |
| 2026-05-05 18:06 | 33.71955 | -88.22609 | 37958 ft | 382 kts | 308° |
| 2026-05-05 18:06 | 33.75530 | -88.27340 | 37938 ft | 382 kts | 308° |
| 2026-05-05 18:07 | 33.79080 | -88.32043 | 37937 ft | 382 kts | 308° |
| 2026-05-05 18:07 | 33.82645 | -88.36774 | 37938 ft | 382 kts | 308° |
| 2026-05-05 18:08 | 33.86212 | -88.41513 | 37936 ft | 382 kts | 308° |
| 2026-05-05 18:08 | 33.89779 | -88.46260 | 37939 ft | 382 kts | 308° |
| 2026-05-05 18:09 | 33.93343 | -88.51009 | 37945 ft | 382 kts | 308° |
| 2026-05-05 18:09 | 33.96896 | -88.55749 | 37948 ft | 382 kts | 307° |
| 2026-05-05 18:10 | 34.00461 | -88.60512 | 37945 ft | 383 kts | 307° |
| 2026-05-05 18:10 | 34.04021 | -88.65274 | 37955 ft | 383 kts | 307° |
| 2026-05-05 18:11 | 34.07582 | -88.70044 | 37964 ft | 382 kts | 307° |
| 2026-05-05 18:11 | 34.11141 | -88.74818 | 37965 ft | 382 kts | 307° |
| 2026-05-05 18:12 | 34.14698 | -88.79595 | 37970 ft | 382 kts | 307° |
| 2026-05-05 18:12 | 34.18251 | -88.84374 | 37971 ft | 382 kts | 307° |
| 2026-05-05 18:13 | 34.21776 | -88.89121 | 37995 ft | 382 kts | 307° |
| 2026-05-05 18:13 | 34.25315 | -88.93894 | 37966 ft | 382 kts | 307° |
| 2026-05-05 18:14 | 34.28863 | -88.98687 | 37959 ft | 382 kts | 307° |
| 2026-05-05 18:14 | 34.32397 | -89.03467 | 37951 ft | 382 kts | 307° |
| 2026-05-05 18:15 | 34.35945 | -89.08271 | 37933 ft | 382 kts | 307° |
| 2026-05-05 18:15 | 34.39483 | -89.13069 | 37931 ft | 382 kts | 307° |
| 2026-05-05 18:16 | 34.43022 | -89.17875 | 37928 ft | 382 kts | 307° |
| 2026-05-05 18:16 | 34.46537 | -89.22655 | 37925 ft | 382 kts | 307° |
| 2026-05-05 18:17 | 34.50073 | -89.27471 | 37917 ft | 383 kts | 307° |
| 2026-05-05 18:17 | 34.53619 | -89.32307 | 37912 ft | 383 kts | 306° |
| 2026-05-05 18:18 | 34.57159 | -89.37140 | 37913 ft | 384 kts | 306° |
| 2026-05-05 18:18 | 34.60701 | -89.41983 | 37902 ft | 383 kts | 306° |
| 2026-05-05 18:19 | 34.64201 | -89.46776 | 37906 ft | 383 kts | 306° |
| 2026-05-05 18:19 | 34.67732 | -89.51617 | 37901 ft | 383 kts | 306° |
| 2026-05-05 18:20 | 34.71267 | -89.56471 | 37893 ft | 383 kts | 306° |
| 2026-05-05 18:20 | 34.74799 | -89.61329 | 37894 ft | 384 kts | 306° |
| 2026-05-05 18:21 | 34.78332 | -89.66194 | 37884 ft | 385 kts | 306° |
| 2026-05-05 18:21 | 34.81878 | -89.71083 | 37880 ft | 385 kts | 306° |
| 2026-05-05 18:22 | 34.85421 | -89.75976 | 37876 ft | 385 kts | 306° |
| 2026-05-05 18:22 | 34.88960 | -89.80868 | 37877 ft | 385 kts | 306° |
| 2026-05-05 18:23 | 34.92471 | -89.85730 | 37878 ft | 385 kts | 306° |
| 2026-05-05 18:23 | 34.96008 | -89.90635 | 37879 ft | 385 kts | 306° |
| 2026-05-05 18:24 | 34.99540 | -89.95540 | 37958 ft | 385 kts | 306° |
| 2026-05-05 18:24 | 35.01312 | -89.98004 | 38072 ft | 386 kts | 306° |
| 2026-05-05 18:24 | 35.03098 | -90.00454 | 38280 ft | 387 kts | 307° |
| 2026-05-05 18:24 | 35.04928 | -90.02850 | 38508 ft | 386 kts | 307° |
| 2026-05-05 18:25 | 35.06785 | -90.05226 | 38691 ft | 386 kts | 308° |
| 2026-05-05 18:25 | 35.10495 | -90.09958 | 38977 ft | 386 kts | 307° |
| 2026-05-05 18:25 | 35.12334 | -90.12322 | 39112 ft | 385 kts | 307° |
| 2026-05-05 18:26 | 35.14173 | -90.14699 | 39258 ft | 385 kts | 307° |
| 2026-05-05 18:26 | 35.16011 | -90.17084 | 39374 ft | 385 kts | 307° |
| 2026-05-05 18:26 | 35.17844 | -90.19469 | 39504 ft | 385 kts | 307° |
| 2026-05-05 18:26 | 35.19670 | -90.21849 | 39625 ft | 385 kts | 307° |
| 2026-05-05 18:27 | 35.21503 | -90.24240 | 39751 ft | 385 kts | 307° |
| 2026-05-05 18:27 | 35.25154 | -90.29006 | 39890 ft | 386 kts | 307° |
| 2026-05-05 18:28 | 35.30650 | -90.36190 | 39859 ft | 386 kts | 307° |
| 2026-05-05 18:28 | 35.34299 | -90.40965 | 39859 ft | 386 kts | 307° |
| 2026-05-05 18:29 | 35.37957 | -90.45761 | 39854 ft | 386 kts | 307° |
| 2026-05-05 18:29 | 35.41623 | -90.50574 | 39856 ft | 386 kts | 307° |
| 2026-05-05 18:30 | 35.45287 | -90.55391 | 39852 ft | 386 kts | 307° |
| 2026-05-05 18:30 | 35.48953 | -90.60217 | 39850 ft | 386 kts | 307° |
| 2026-05-05 18:31 | 35.52613 | -90.65044 | 39852 ft | 387 kts | 307° |
| 2026-05-05 18:31 | 35.56270 | -90.69874 | 39847 ft | 387 kts | 307° |
| 2026-05-05 18:32 | 35.59936 | -90.74722 | 39848 ft | 387 kts | 307° |
| 2026-05-05 18:32 | 35.63601 | -90.79574 | 39848 ft | 388 kts | 306° |
| 2026-05-05 18:33 | 35.67270 | -90.84441 | 39846 ft | 388 kts | 306° |
| 2026-05-05 18:33 | 35.70937 | -90.89310 | 39846 ft | 388 kts | 306° |
| 2026-05-05 18:34 | 35.74600 | -90.94183 | 39842 ft | 388 kts | 306° |
| 2026-05-05 18:34 | 35.78263 | -90.99061 | 39832 ft | 388 kts | 306° |
| 2026-05-05 18:35 | 35.81310 | -91.03125 | 39841 ft | 388 kts | 306° |
| 2026-05-05 18:35 | 35.84971 | -91.08016 | 39819 ft | 388 kts | 306° |
| 2026-05-05 18:36 | 35.88623 | -91.12899 | 39823 ft | 388 kts | 306° |
| 2026-05-05 18:36 | 35.92284 | -91.17801 | 39821 ft | 388 kts | 306° |
| 2026-05-05 18:37 | 35.95934 | -91.22697 | 39809 ft | 387 kts | 306° |
| 2026-05-05 18:37 | 35.99556 | -91.27564 | 39810 ft | 387 kts | 306° |
| 2026-05-05 18:38 | 36.03190 | -91.32454 | 39813 ft | 387 kts | 306° |
| 2026-05-05 18:38 | 36.06832 | -91.37361 | 39811 ft | 387 kts | 306° |
| 2026-05-05 18:39 | 36.10473 | -91.42274 | 39803 ft | 387 kts | 306° |
| 2026-05-05 18:39 | 36.14098 | -91.47173 | 39801 ft | 387 kts | 306° |
| 2026-05-05 18:40 | 36.17733 | -91.52093 | 39808 ft | 387 kts | 305° |
| 2026-05-05 18:40 | 36.21367 | -91.57018 | 39804 ft | 387 kts | 305° |
| 2026-05-05 18:41 | 36.24997 | -91.61945 | 39819 ft | 387 kts | 305° |
| 2026-05-05 18:41 | 36.28616 | -91.66863 | 39806 ft | 387 kts | 305° |
| 2026-05-05 18:42 | 36.32238 | -91.71794 | 39801 ft | 387 kts | 305° |
| 2026-05-05 18:42 | 36.35853 | -91.76724 | 39799 ft | 387 kts | 305° |
| 2026-05-05 18:43 | 36.39474 | -91.81669 | 39797 ft | 387 kts | 305° |
| 2026-05-05 18:43 | 36.43088 | -91.86612 | 39791 ft | 387 kts | 305° |
| 2026-05-05 18:44 | 36.46703 | -91.91563 | 39784 ft | 387 kts | 304° |
| 2026-05-05 18:44 | 36.50318 | -91.96521 | 39794 ft | 387 kts | 304° |
| 2026-05-05 18:45 | 36.53904 | -92.01445 | 39792 ft | 387 kts | 304° |
| 2026-05-05 18:45 | 36.57510 | -92.06406 | 39799 ft | 386 kts | 304° |
| 2026-05-05 18:46 | 36.61113 | -92.11370 | 39801 ft | 386 kts | 304° |
| 2026-05-05 18:46 | 36.64712 | -92.16337 | 39801 ft | 386 kts | 304° |
| 2026-05-05 18:47 | 36.68312 | -92.21312 | 39802 ft | 386 kts | 304° |
| 2026-05-05 18:47 | 36.71900 | -92.26275 | 39798 ft | 386 kts | 304° |
| 2026-05-05 18:48 | 36.75496 | -92.31264 | 39803 ft | 387 kts | 304° |
| 2026-05-05 18:48 | 36.79093 | -92.36263 | 39790 ft | 387 kts | 304° |
| 2026-05-05 18:49 | 36.82693 | -92.41265 | 39796 ft | 388 kts | 303° |
| 2026-05-05 18:49 | 36.86289 | -92.46269 | 39795 ft | 388 kts | 304° |
| 2026-05-05 18:50 | 36.89887 | -92.51285 | 39797 ft | 387 kts | 303° |
| 2026-05-05 18:50 | 36.93455 | -92.56269 | 39802 ft | 387 kts | 303° |
| 2026-05-05 18:51 | 36.97042 | -92.61287 | 39822 ft | 387 kts | 303° |
| 2026-05-05 18:51 | 37.00628 | -92.66312 | 39807 ft | 388 kts | 303° |
| 2026-05-05 18:52 | 37.04214 | -92.71346 | 39820 ft | 388 kts | 303° |
| 2026-05-05 18:52 | 37.07808 | -92.76396 | 39817 ft | 388 kts | 303° |
| 2026-05-05 18:53 | 37.11399 | -92.81449 | 39828 ft | 388 kts | 303° |
| 2026-05-05 18:53 | 37.14988 | -92.86507 | 39829 ft | 388 kts | 303° |
| 2026-05-05 18:54 | 37.18562 | -92.91553 | 39829 ft | 388 kts | 303° |
| 2026-05-05 18:54 | 37.22146 | -92.96621 | 39839 ft | 389 kts | 302° |
| 2026-05-05 18:55 | 37.25736 | -93.01707 | 39842 ft | 389 kts | 302° |
| 2026-05-05 18:55 | 37.29296 | -93.06756 | 39851 ft | 389 kts | 302° |
| 2026-05-05 18:56 | 37.32870 | -93.11834 | 39845 ft | 389 kts | 302° |
| 2026-05-05 18:56 | 37.36454 | -93.16932 | 39848 ft | 389 kts | 302° |
| 2026-05-05 18:57 | 37.40023 | -93.22017 | 39861 ft | 389 kts | 302° |
| 2026-05-05 18:57 | 37.43593 | -93.27114 | 39896 ft | 389 kts | 302° |
| 2026-05-05 18:58 | 37.47166 | -93.32222 | 39861 ft | 389 kts | 302° |
| 2026-05-05 18:58 | 37.50741 | -93.37341 | 39876 ft | 389 kts | 302° |
| 2026-05-05 18:59 | 37.54305 | -93.42452 | 39875 ft | 389 kts | 302° |
| 2026-05-05 18:59 | 37.57868 | -93.47569 | 39886 ft | 389 kts | 302° |
| 2026-05-05 19:00 | 37.61432 | -93.52697 | 39896 ft | 389 kts | 302° |
| 2026-05-05 19:00 | 37.64978 | -93.57804 | 39898 ft | 389 kts | 302° |
| 2026-05-05 19:01 | 37.68540 | -93.62946 | 39910 ft | 389 kts | 302° |
| 2026-05-05 19:01 | 37.72100 | -93.68093 | 39907 ft | 389 kts | 302° |
| 2026-05-05 19:02 | 37.75651 | -93.73232 | 39914 ft | 389 kts | 302° |
| 2026-05-05 19:02 | 37.79185 | -93.78357 | 39914 ft | 389 kts | 302° |
| 2026-05-05 19:03 | 37.82717 | -93.83486 | 39917 ft | 390 kts | 301° |
| 2026-05-05 19:03 | 37.86263 | -93.88646 | 39930 ft | 390 kts | 301° |
| 2026-05-05 19:04 | 37.89812 | -93.93816 | 39950 ft | 390 kts | 301° |
| 2026-05-05 19:04 | 37.93360 | -93.98994 | 39933 ft | 390 kts | 301° |
| 2026-05-05 19:05 | 37.96852 | -94.04097 | 39943 ft | 391 kts | 301° |
| 2026-05-05 19:05 | 38.00444 | -94.09356 | 39944 ft | 391 kts | 301° |
| 2026-05-05 19:06 | 38.03998 | -94.14567 | 39951 ft | 390 kts | 301° |
| 2026-05-05 19:06 | 38.07547 | -94.19781 | 39939 ft | 390 kts | 301° |
| 2026-05-05 19:07 | 38.11094 | -94.25000 | 39953 ft | 392 kts | 301° |
| 2026-05-05 19:07 | 38.14658 | -94.30254 | 39957 ft | 393 kts | 301° |
| 2026-05-05 19:08 | 38.18217 | -94.35505 | 39957 ft | 393 kts | 301° |
| 2026-05-05 19:08 | 38.21772 | -94.40759 | 39958 ft | 393 kts | 301° |
| 2026-05-05 19:09 | 38.25330 | -94.46025 | 39960 ft | 393 kts | 301° |
| 2026-05-05 19:09 | 38.28891 | -94.51301 | 39965 ft | 393 kts | 301° |
| 2026-05-05 19:10 | 38.32470 | -94.56573 | 39971 ft | 393 kts | 301° |
| 2026-05-05 19:10 | 38.36041 | -94.61830 | 39969 ft | 394 kts | 301° |
| 2026-05-05 19:11 | 38.39596 | -94.67077 | 39976 ft | 393 kts | 301° |
| 2026-05-05 19:11 | 38.43169 | -94.72364 | 39970 ft | 393 kts | 301° |
| 2026-05-05 19:12 | 38.46732 | -94.77646 | 39977 ft | 393 kts | 301° |
| 2026-05-05 19:12 | 38.50297 | -94.82942 | 39969 ft | 393 kts | 301° |
| 2026-05-05 19:13 | 38.53859 | -94.88240 | 39967 ft | 393 kts | 301° |
| 2026-05-05 19:13 | 38.57418 | -94.93543 | 39979 ft | 393 kts | 301° |
| 2026-05-05 19:14 | 38.60971 | -94.98845 | 39967 ft | 392 kts | 301° |
| 2026-05-05 19:14 | 38.64500 | -95.04120 | 39967 ft | 392 kts | 301° |
| 2026-05-05 19:15 | 38.68044 | -95.09427 | 39977 ft | 392 kts | 301° |
| 2026-05-05 19:15 | 38.71588 | -95.14742 | 39977 ft | 392 kts | 300° |
| 2026-05-05 19:16 | 38.75106 | -95.20028 | 39979 ft | 392 kts | 300° |
| 2026-05-05 19:16 | 38.78659 | -95.25375 | 39995 ft | 393 kts | 301° |
| 2026-05-05 19:17 | 38.82195 | -95.30706 | 39980 ft | 393 kts | 301° |
| 2026-05-05 19:17 | 38.85733 | -95.36048 | 39981 ft | 393 kts | 300° |
| 2026-05-05 19:18 | 38.89248 | -95.41364 | 39981 ft | 394 kts | 300° |
| 2026-05-05 19:18 | 38.92792 | -95.46735 | 39988 ft | 394 kts | 300° |
| 2026-05-05 19:19 | 38.96330 | -95.52103 | 39989 ft | 394 kts | 300° |
| 2026-05-05 19:19 | 38.99868 | -95.57479 | 40020 ft | 394 kts | 300° |
| 2026-05-05 19:20 | 39.03408 | -95.62871 | 39990 ft | 395 kts | 300° |
| 2026-05-05 19:20 | 39.06937 | -95.68253 | 39989 ft | 395 kts | 300° |
| 2026-05-05 19:21 | 39.10469 | -95.73649 | 39985 ft | 395 kts | 300° |
| 2026-05-05 19:21 | 39.14015 | -95.79081 | 39989 ft | 397 kts | 300° |
| 2026-05-05 19:22 | 39.17566 | -95.84523 | 39987 ft | 397 kts | 300° |
| 2026-05-05 19:22 | 39.21119 | -95.89978 | 40009 ft | 397 kts | 300° |
| 2026-05-05 19:23 | 39.24670 | -95.95442 | 39987 ft | 398 kts | 300° |
| 2026-05-05 19:23 | 39.28229 | -96.00927 | 39988 ft | 398 kts | 300° |
| 2026-05-05 19:24 | 39.31762 | -96.06381 | 39984 ft | 398 kts | 300° |
| 2026-05-05 19:24 | 39.35304 | -96.11858 | 39986 ft | 399 kts | 300° |
| 2026-05-05 19:25 | 39.38289 | -96.16488 | 39990 ft | 401 kts | 300° |
| 2026-05-05 19:25 | 39.41827 | -96.21975 | 40028 ft | 401 kts | 300° |
| 2026-05-05 19:26 | 39.45399 | -96.27524 | 40002 ft | 401 kts | 299° |
| 2026-05-05 19:26 | 39.48968 | -96.33079 | 40001 ft | 402 kts | 299° |
| 2026-05-05 19:27 | 39.52537 | -96.38645 | 39993 ft | 402 kts | 299° |
| 2026-05-05 19:27 | 39.56093 | -96.44200 | 40002 ft | 402 kts | 299° |
| 2026-05-05 19:28 | 39.59654 | -96.49777 | 40000 ft | 402 kts | 299° |
| 2026-05-05 19:28 | 39.63217 | -96.55367 | 40018 ft | 404 kts | 299° |
| 2026-05-05 19:29 | 39.66797 | -96.60991 | 40013 ft | 404 kts | 299° |
| 2026-05-05 19:29 | 39.70368 | -96.66608 | 40014 ft | 404 kts | 299° |
| 2026-05-05 19:30 | 39.73942 | -96.72240 | 40016 ft | 404 kts | 299° |
| 2026-05-05 19:30 | 39.77516 | -96.77884 | 40016 ft | 404 kts | 299° |
| 2026-05-05 19:31 | 39.81060 | -96.83491 | 40017 ft | 404 kts | 299° |
| 2026-05-05 19:31 | 39.84655 | -96.89191 | 40025 ft | 406 kts | 299° |
| 2026-05-05 19:32 | 39.88219 | -96.94853 | 40011 ft | 407 kts | 299° |
| 2026-05-05 19:32 | 39.91803 | -97.00555 | 40009 ft | 407 kts | 299° |
| 2026-05-05 19:33 | 39.95379 | -97.06250 | 40008 ft | 407 kts | 299° |
| 2026-05-05 19:33 | 39.98922 | -97.11907 | 40007 ft | 407 kts | 299° |
| 2026-05-05 19:34 | 40.02493 | -97.17620 | 40007 ft | 407 kts | 299° |
| 2026-05-05 19:35 | 40.07844 | -97.26198 | 39997 ft | 407 kts | 299° |
| 2026-05-05 19:35 | 40.11383 | -97.31883 | 40016 ft | 407 kts | 299° |
| 2026-05-05 19:36 | 40.14950 | -97.37626 | 40018 ft | 407 kts | 299° |
| 2026-05-05 19:36 | 40.18518 | -97.43379 | 39999 ft | 407 kts | 299° |
| 2026-05-05 19:37 | 40.22084 | -97.49142 | 40018 ft | 407 kts | 299° |
| 2026-05-05 19:37 | 40.25646 | -97.54907 | 40038 ft | 407 kts | 299° |
| 2026-05-05 19:38 | 40.29197 | -97.60667 | 40033 ft | 408 kts | 299° |
| 2026-05-05 19:38 | 40.32759 | -97.66457 | 40029 ft | 410 kts | 299° |
| 2026-05-05 19:39 | 40.36299 | -97.72219 | 40026 ft | 410 kts | 299° |
| 2026-05-05 19:39 | 40.39848 | -97.78005 | 40025 ft | 410 kts | 299° |
| 2026-05-05 19:40 | 40.43418 | -97.83837 | 40023 ft | 410 kts | 299° |
| 2026-05-05 19:40 | 40.46984 | -97.89674 | 40025 ft | 410 kts | 299° |
| 2026-05-05 19:41 | 40.50546 | -97.95517 | 40022 ft | 410 kts | 299° |
| 2026-05-05 19:41 | 40.54109 | -98.01372 | 40027 ft | 411 kts | 298° |
| 2026-05-05 19:42 | 40.57676 | -98.07247 | 40039 ft | 411 kts | 298° |
| 2026-05-05 19:42 | 40.61245 | -98.13133 | 40042 ft | 411 kts | 298° |
| 2026-05-05 19:43 | 40.64811 | -98.19024 | 40043 ft | 412 kts | 299° |
| 2026-05-05 19:43 | 40.68368 | -98.24913 | 40050 ft | 412 kts | 299° |
| 2026-05-05 19:44 | 40.71930 | -98.30821 | 40054 ft | 412 kts | 299° |
| 2026-05-05 19:44 | 40.75487 | -98.36732 | 40048 ft | 412 kts | 298° |
| 2026-05-05 19:45 | 40.79095 | -98.42629 | 40039 ft | 414 kts | 300° |
| 2026-05-05 19:45 | 40.82749 | -98.48431 | 40078 ft | 415 kts | 300° |
| 2026-05-05 19:46 | 40.86438 | -98.54300 | 40056 ft | 416 kts | 300° |
| 2026-05-05 19:46 | 40.90139 | -98.60227 | 40055 ft | 416 kts | 300° |
| 2026-05-05 19:47 | 40.93781 | -98.66086 | 40052 ft | 416 kts | 300° |
| 2026-05-05 19:47 | 40.97433 | -98.71974 | 40062 ft | 416 kts | 300° |
| 2026-05-05 19:48 | 41.01103 | -98.77905 | 40041 ft | 417 kts | 300° |
| 2026-05-05 19:48 | 41.04779 | -98.83859 | 40047 ft | 418 kts | 300° |
| 2026-05-05 19:49 | 41.08442 | -98.89797 | 40046 ft | 418 kts | 300° |
| 2026-05-05 19:49 | 41.12121 | -98.95773 | 40042 ft | 418 kts | 300° |
| 2026-05-05 19:50 | 41.15798 | -99.01759 | 40045 ft | 418 kts | 300° |
| 2026-05-05 19:50 | 41.19467 | -99.07743 | 40041 ft | 418 kts | 300° |
| 2026-05-05 19:51 | 41.23142 | -99.13752 | 40042 ft | 419 kts | 300° |
| 2026-05-05 19:51 | 41.26695 | -99.19865 | 40042 ft | 417 kts | 297° |
| 2026-05-05 19:52 | 41.30010 | -99.26166 | 40032 ft | 415 kts | 296° |
| 2026-05-05 19:52 | 41.33317 | -99.32475 | 40039 ft | 416 kts | 296° |
| 2026-05-05 19:53 | 41.36660 | -99.38760 | 40032 ft | 416 kts | 297° |
| 2026-05-05 19:53 | 41.40020 | -99.45041 | 40033 ft | 416 kts | 297° |
| 2026-05-05 19:54 | 41.43345 | -99.51263 | 40030 ft | 418 kts | 297° |
| 2026-05-05 19:54 | 41.46714 | -99.57581 | 40026 ft | 418 kts | 297° |
| 2026-05-05 19:55 | 41.50078 | -99.63903 | 40032 ft | 418 kts | 297° |
| 2026-05-05 19:55 | 41.53430 | -99.70219 | 40032 ft | 418 kts | 297° |
| 2026-05-05 19:56 | 41.56776 | -99.76538 | 40030 ft | 418 kts | 297° |
| 2026-05-05 19:56 | 41.60126 | -99.82876 | 40034 ft | 418 kts | 297° |
| 2026-05-05 19:57 | 41.63477 | -99.89229 | 40035 ft | 419 kts | 297° |
| 2026-05-05 19:57 | 41.66755 | -99.95459 | 40035 ft | 419 kts | 297° |
| 2026-05-05 19:58 | 41.70158 | -100.01934 | 40033 ft | 419 kts | 297° |
| 2026-05-05 19:58 | 41.73507 | -100.08322 | 40032 ft | 419 kts | 297° |
| 2026-05-05 19:59 | 41.76822 | -100.14661 | 40043 ft | 419 kts | 297° |
| 2026-05-05 19:59 | 41.80153 | -100.21041 | 40034 ft | 419 kts | 297° |
| 2026-05-05 20:00 | 41.83483 | -100.27435 | 40040 ft | 420 kts | 297° |
| 2026-05-05 20:00 | 41.86822 | -100.33860 | 40039 ft | 420 kts | 297° |
| 2026-05-05 20:01 | 41.90126 | -100.40230 | 40038 ft | 420 kts | 297° |
| 2026-05-05 20:01 | 41.93453 | -100.46658 | 40064 ft | 421 kts | 297° |
| 2026-05-05 20:02 | 41.96794 | -100.53130 | 40038 ft | 422 kts | 297° |
| 2026-05-05 20:02 | 42.00139 | -100.59621 | 40034 ft | 423 kts | 297° |
| 2026-05-05 20:03 | 42.03495 | -100.66146 | 40038 ft | 424 kts | 297° |
| 2026-05-05 20:03 | 42.06850 | -100.72682 | 40039 ft | 425 kts | 297° |
| 2026-05-05 20:04 | 42.10188 | -100.79198 | 40042 ft | 424 kts | 297° |
| 2026-05-05 20:04 | 42.13547 | -100.85773 | 40043 ft | 428 kts | 298° |
| 2026-05-05 20:05 | 42.16922 | -100.92395 | 40049 ft | 429 kts | 298° |
| 2026-05-05 20:05 | 42.20271 | -100.98976 | 40039 ft | 429 kts | 298° |
| 2026-05-05 20:06 | 42.23646 | -101.05623 | 40049 ft | 429 kts | 298° |
| 2026-05-05 20:06 | 42.27019 | -101.12281 | 40049 ft | 429 kts | 298° |
| 2026-05-05 20:07 | 42.30362 | -101.18896 | 40050 ft | 429 kts | 298° |
| 2026-05-05 20:07 | 42.33708 | -101.25532 | 40032 ft | 429 kts | 297° |
| 2026-05-05 20:08 | 42.37053 | -101.32180 | 40037 ft | 429 kts | 298° |
| 2026-05-05 20:08 | 42.40406 | -101.38862 | 40040 ft | 431 kts | 298° |
| 2026-05-05 20:09 | 42.43771 | -101.45578 | 40039 ft | 431 kts | 298° |
| 2026-05-05 20:09 | 42.47138 | -101.52316 | 40048 ft | 432 kts | 298° |
| 2026-05-05 20:10 | 42.50499 | -101.59057 | 40046 ft | 433 kts | 298° |
| 2026-05-05 20:10 | 42.53862 | -101.65813 | 40054 ft | 433 kts | 298° |
| 2026-05-05 20:11 | 42.57229 | -101.72595 | 40048 ft | 433 kts | 298° |
| 2026-05-05 20:11 | 42.60569 | -101.79341 | 40056 ft | 434 kts | 298° |
| 2026-05-05 20:12 | 42.63930 | -101.86143 | 40058 ft | 434 kts | 298° |
| 2026-05-05 20:12 | 42.67300 | -101.92977 | 40044 ft | 436 kts | 298° |
| 2026-05-05 20:13 | 42.70668 | -101.99822 | 40042 ft | 436 kts | 298° |
| 2026-05-05 20:13 | 42.74032 | -102.06677 | 40032 ft | 436 kts | 298° |
| 2026-05-05 20:14 | 42.77393 | -102.13539 | 40039 ft | 436 kts | 298° |
| 2026-05-05 20:14 | 42.80174 | -102.19232 | 40072 ft | 436 kts | 298° |
| 2026-05-05 20:15 | 42.83532 | -102.26121 | 40049 ft | 438 kts | 298° |
| 2026-05-05 20:15 | 42.86899 | -102.33041 | 40050 ft | 438 kts | 298° |
| 2026-05-05 20:16 | 42.90251 | -102.39947 | 40056 ft | 438 kts | 298° |
| 2026-05-05 20:16 | 42.93606 | -102.46875 | 40043 ft | 439 kts | 298° |
| 2026-05-05 20:17 | 42.96963 | -102.53827 | 40049 ft | 441 kts | 299° |
| 2026-05-05 20:17 | 43.00311 | -102.60773 | 40044 ft | 443 kts | 298° |
| 2026-05-05 20:18 | 43.03728 | -102.67878 | 40046 ft | 443 kts | 298° |
| 2026-05-05 20:18 | 43.07101 | -102.74908 | 40049 ft | 443 kts | 298° |
| 2026-05-05 20:19 | 43.10471 | -102.81951 | 40054 ft | 443 kts | 298° |
| 2026-05-05 20:19 | 43.13764 | -102.88854 | 40058 ft | 446 kts | 299° |
| 2026-05-05 20:20 | 43.17211 | -102.96090 | 40056 ft | 447 kts | 299° |
| 2026-05-05 20:20 | 43.20606 | -103.03234 | 40056 ft | 447 kts | 299° |
| 2026-05-05 20:21 | 43.23997 | -103.10386 | 40042 ft | 447 kts | 299° |
| 2026-05-05 20:21 | 43.27381 | -103.17544 | 40052 ft | 448 kts | 299° |
| 2026-05-05 20:22 | 43.30782 | -103.24761 | 40012 ft | 452 kts | 299° |
| 2026-05-05 20:22 | 43.34199 | -103.32021 | 40011 ft | 453 kts | 299° |
| 2026-05-05 20:23 | 43.37559 | -103.39179 | 39982 ft | 453 kts | 299° |
| 2026-05-05 20:23 | 43.41008 | -103.46543 | 39980 ft | 452 kts | 299° |
| 2026-05-05 20:24 | 43.44409 | -103.53827 | 39960 ft | 451 kts | 300° |
| 2026-05-05 20:24 | 43.47781 | -103.61063 | 39956 ft | 448 kts | 300° |
| 2026-05-05 20:25 | 43.51139 | -103.68294 | 39949 ft | 448 kts | 300° |
| 2026-05-05 20:25 | 43.54488 | -103.75519 | 39950 ft | 448 kts | 300° |
| 2026-05-05 20:26 | 43.57840 | -103.82764 | 39948 ft | 448 kts | 300° |
| 2026-05-05 20:26 | 43.61156 | -103.89954 | 39967 ft | 446 kts | 300° |
| 2026-05-05 20:27 | 43.64486 | -103.97186 | 39966 ft | 446 kts | 300° |
| 2026-05-05 20:27 | 43.67805 | -104.04419 | 39966 ft | 446 kts | 300° |
| 2026-05-05 20:28 | 43.71125 | -104.11672 | 39997 ft | 446 kts | 300° |
| 2026-05-05 20:28 | 43.74427 | -104.18905 | 40018 ft | 446 kts | 300° |
| 2026-05-05 20:29 | 43.77734 | -104.26163 | 40020 ft | 447 kts | 300° |
| 2026-05-05 20:29 | 43.81041 | -104.33440 | 40028 ft | 447 kts | 300° |
| 2026-05-05 20:30 | 43.84342 | -104.40722 | 40024 ft | 447 kts | 300° |
| 2026-05-05 20:30 | 43.87641 | -104.48018 | 40022 ft | 447 kts | 300° |
| 2026-05-05 20:31 | 43.90924 | -104.55296 | 40017 ft | 447 kts | 299° |
| 2026-05-05 20:31 | 43.94212 | -104.62606 | 40010 ft | 447 kts | 299° |
| 2026-05-05 20:32 | 43.97492 | -104.69913 | 40003 ft | 447 kts | 299° |
| 2026-05-05 20:32 | 44.00770 | -104.77237 | 39999 ft | 447 kts | 299° |
| 2026-05-05 20:33 | 44.04045 | -104.84572 | 40011 ft | 448 kts | 300° |
| 2026-05-05 20:33 | 44.07336 | -104.91963 | 40001 ft | 450 kts | 299° |
| 2026-05-05 20:34 | 44.10621 | -104.99356 | 40001 ft | 450 kts | 299° |
| 2026-05-05 20:34 | 44.13903 | -105.06762 | 40006 ft | 451 kts | 299° |
| 2026-05-05 20:35 | 44.17158 | -105.14126 | 40012 ft | 451 kts | 299° |
| 2026-05-05 20:35 | 44.20449 | -105.21594 | 40011 ft | 453 kts | 300° |
| 2026-05-05 20:36 | 44.23732 | -105.29060 | 40012 ft | 454 kts | 300° |
| 2026-05-05 20:36 | 44.27031 | -105.36582 | 40018 ft | 455 kts | 300° |
| 2026-05-05 20:37 | 44.30324 | -105.44108 | 40035 ft | 454 kts | 300° |
| 2026-05-05 20:37 | 44.33612 | -105.51649 | 40038 ft | 455 kts | 300° |
| 2026-05-05 20:38 | 44.36977 | -105.59127 | 40038 ft | 457 kts | 303° |
| 2026-05-05 20:38 | 44.40650 | -105.66380 | 40035 ft | 458 kts | 304° |
| 2026-05-05 20:39 | 44.44356 | -105.73619 | 40028 ft | 457 kts | 303° |
| 2026-05-05 20:39 | 44.48008 | -105.80900 | 40035 ft | 457 kts | 303° |
| 2026-05-05 20:40 | 44.51627 | -105.88207 | 40027 ft | 458 kts | 303° |
| 2026-05-05 20:40 | 44.55252 | -105.95562 | 40023 ft | 459 kts | 303° |
| 2026-05-05 20:41 | 44.58880 | -106.02935 | 40009 ft | 459 kts | 303° |
| 2026-05-05 20:41 | 44.62506 | -106.10317 | 40025 ft | 459 kts | 303° |
| 2026-05-05 20:42 | 44.66102 | -106.17661 | 40032 ft | 460 kts | 303° |
| 2026-05-05 20:42 | 44.69730 | -106.25088 | 40032 ft | 461 kts | 303° |
| 2026-05-05 20:43 | 44.73355 | -106.32526 | 40032 ft | 461 kts | 303° |
| 2026-05-05 20:43 | 44.76968 | -106.39960 | 40036 ft | 461 kts | 303° |
| 2026-05-05 20:44 | 44.80587 | -106.47429 | 40019 ft | 462 kts | 304° |
| 2026-05-05 20:44 | 44.84203 | -106.54906 | 40045 ft | 462 kts | 304° |
| 2026-05-05 20:45 | 44.89619 | -106.66140 | 40045 ft | 462 kts | 304° |
| 2026-05-05 20:45 | 44.93213 | -106.73623 | 40057 ft | 462 kts | 304° |
| 2026-05-05 20:46 | 44.96809 | -106.81130 | 40050 ft | 462 kts | 304° |
| 2026-05-05 20:46 | 45.00406 | -106.88657 | 40055 ft | 462 kts | 304° |
| 2026-05-05 20:47 | 45.03973 | -106.96141 | 40058 ft | 462 kts | 304° |
| 2026-05-05 20:47 | 45.07559 | -107.03686 | 40064 ft | 462 kts | 304° |
| 2026-05-05 20:48 | 45.11142 | -107.11244 | 40067 ft | 463 kts | 304° |
| 2026-05-05 20:48 | 45.14724 | -107.18820 | 40075 ft | 463 kts | 304° |
| 2026-05-05 20:49 | 45.18297 | -107.26395 | 40078 ft | 462 kts | 304° |
| 2026-05-05 20:49 | 45.21866 | -107.33983 | 40078 ft | 462 kts | 304° |
| 2026-05-05 20:50 | 45.25428 | -107.41579 | 40090 ft | 462 kts | 304° |
| 2026-05-05 20:50 | 45.28988 | -107.49188 | 40088 ft | 463 kts | 304° |
| 2026-05-05 20:51 | 45.32543 | -107.56805 | 40089 ft | 463 kts | 304° |
| 2026-05-05 20:51 | 45.36097 | -107.64445 | 40093 ft | 463 kts | 304° |
| 2026-05-05 20:52 | 45.39639 | -107.72077 | 40080 ft | 462 kts | 304° |
| 2026-05-05 20:52 | 45.43173 | -107.79712 | 40093 ft | 461 kts | 304° |
| 2026-05-05 20:53 | 45.46688 | -107.87326 | 40097 ft | 461 kts | 304° |
| 2026-05-05 20:53 | 45.50203 | -107.94963 | 40096 ft | 461 kts | 304° |
| 2026-05-05 20:54 | 45.53719 | -108.02622 | 40101 ft | 461 kts | 304° |
| 2026-05-05 20:54 | 45.57225 | -108.10280 | 40104 ft | 461 kts | 304° |
| 2026-05-05 20:55 | 45.60727 | -108.17948 | 40099 ft | 461 kts | 304° |
| 2026-05-05 20:55 | 45.64225 | -108.25628 | 40100 ft | 461 kts | 304° |
| 2026-05-05 20:56 | 45.67706 | -108.33292 | 40100 ft | 460 kts | 304° |
| 2026-05-05 20:56 | 45.71183 | -108.40973 | 40102 ft | 460 kts | 304° |
| 2026-05-05 20:57 | 45.74650 | -108.48648 | 40100 ft | 461 kts | 304° |
| 2026-05-05 20:57 | 45.78125 | -108.56361 | 40100 ft | 461 kts | 304° |
| 2026-05-05 20:58 | 45.81267 | -108.64296 | 40105 ft | 463 kts | 295° |
| 2026-05-05 20:58 | 45.83728 | -108.72829 | 40100 ft | 464 kts | 294° |
| 2026-05-05 20:59 | 45.86073 | -108.81479 | 40091 ft | 466 kts | 294° |
| 2026-05-05 20:59 | 45.88404 | -108.90178 | 40086 ft | 466 kts | 294° |
| 2026-05-05 21:00 | 45.90722 | -108.98819 | 40080 ft | 465 kts | 294° |
| 2026-05-05 21:00 | 45.93046 | -109.07475 | 40081 ft | 465 kts | 294° |
| 2026-05-05 21:01 | 45.95368 | -109.16142 | 40072 ft | 465 kts | 294° |
| 2026-05-05 21:01 | 45.97683 | -109.24822 | 40072 ft | 465 kts | 294° |
| 2026-05-05 21:02 | 45.99993 | -109.33515 | 40073 ft | 465 kts | 294° |
| 2026-05-05 21:02 | 46.02296 | -109.42214 | 40068 ft | 464 kts | 294° |
| 2026-05-05 21:03 | 46.04196 | -109.49417 | 40071 ft | 463 kts | 294° |
| 2026-05-05 21:03 | 46.06478 | -109.58098 | 40076 ft | 463 kts | 294° |
| 2026-05-05 21:04 | 46.08753 | -109.66784 | 40090 ft | 463 kts | 295° |
| 2026-05-05 21:04 | 46.11006 | -109.75413 | 40083 ft | 463 kts | 294° |
| 2026-05-05 21:05 | 46.13262 | -109.84090 | 40104 ft | 464 kts | 294° |
| 2026-05-05 21:05 | 46.15510 | -109.92768 | 40111 ft | 464 kts | 294° |
| 2026-05-05 21:06 | 46.17759 | -110.01484 | 40125 ft | 463 kts | 294° |
| 2026-05-05 21:06 | 46.20003 | -110.10211 | 40132 ft | 464 kts | 294° |
| 2026-05-05 21:07 | 46.22237 | -110.18931 | 40127 ft | 463 kts | 294° |
| 2026-05-05 21:07 | 46.24461 | -110.27647 | 40133 ft | 462 kts | 294° |
| 2026-05-05 21:08 | 46.26672 | -110.36346 | 40132 ft | 462 kts | 294° |
| 2026-05-05 21:08 | 46.28874 | -110.45044 | 40125 ft | 461 kts | 295° |
| 2026-05-05 21:09 | 46.31066 | -110.53726 | 40125 ft | 460 kts | 295° |
| 2026-05-05 21:09 | 46.33247 | -110.62390 | 40120 ft | 459 kts | 295° |
| 2026-05-05 21:10 | 46.35424 | -110.71092 | 40114 ft | 460 kts | 295° |
| 2026-05-05 21:10 | 46.37592 | -110.79796 | 40116 ft | 460 kts | 295° |
| 2026-05-05 21:11 | 46.39756 | -110.88507 | 40113 ft | 460 kts | 295° |
| 2026-05-05 21:11 | 46.41910 | -110.97211 | 40115 ft | 459 kts | 295° |
| 2026-05-05 21:12 | 46.44054 | -111.05913 | 40128 ft | 458 kts | 295° |
| 2026-05-05 21:12 | 46.46173 | -111.14539 | 40126 ft | 458 kts | 295° |
| 2026-05-05 21:13 | 46.48303 | -111.23244 | 40143 ft | 457 kts | 295° |
| 2026-05-05 21:13 | 46.50415 | -111.31907 | 40147 ft | 458 kts | 295° |
| 2026-05-05 21:14 | 46.52531 | -111.40624 | 40146 ft | 458 kts | 295° |
| 2026-05-05 21:14 | 46.54642 | -111.49353 | 40139 ft | 457 kts | 295° |
| 2026-05-05 21:15 | 46.56734 | -111.58044 | 40145 ft | 455 kts | 295° |
| 2026-05-05 21:15 | 46.58819 | -111.66736 | 40154 ft | 455 kts | 295° |
| 2026-05-05 21:16 | 46.60895 | -111.75421 | 40147 ft | 455 kts | 295° |
| 2026-05-05 21:16 | 46.62965 | -111.84113 | 40124 ft | 455 kts | 295° |
| 2026-05-05 21:17 | 46.65028 | -111.92810 | 40139 ft | 455 kts | 295° |
| 2026-05-05 21:17 | 46.67085 | -112.01523 | 40109 ft | 455 kts | 295° |
| 2026-05-05 21:18 | 46.69132 | -112.10222 | 40131 ft | 456 kts | 295° |
| 2026-05-05 21:18 | 46.71179 | -112.18960 | 40135 ft | 456 kts | 295° |
| 2026-05-05 21:19 | 46.73212 | -112.27672 | 40143 ft | 456 kts | 295° |
| 2026-05-05 21:19 | 46.75240 | -112.36402 | 40137 ft | 456 kts | 295° |
| 2026-05-05 21:20 | 46.77268 | -112.45165 | 40139 ft | 456 kts | 295° |
| 2026-05-05 21:20 | 46.79292 | -112.53942 | 40080 ft | 456 kts | 295° |
| 2026-05-05 21:21 | 46.81306 | -112.62719 | 40126 ft | 456 kts | 295° |
| 2026-05-05 21:21 | 46.83300 | -112.71439 | 40130 ft | 456 kts | 295° |
| 2026-05-05 21:22 | 46.85306 | -112.80245 | 40114 ft | 457 kts | 295° |
| 2026-05-05 21:22 | 46.87303 | -112.89051 | 40115 ft | 456 kts | 295° |
| 2026-05-05 21:23 | 46.89294 | -112.97863 | 40096 ft | 457 kts | 294° |
| 2026-05-05 21:23 | 46.91285 | -113.06709 | 40085 ft | 458 kts | 294° |
| 2026-05-05 21:24 | 46.93268 | -113.15563 | 40086 ft | 459 kts | 295° |
| 2026-05-05 21:24 | 46.95252 | -113.24452 | 40051 ft | 460 kts | 295° |
| 2026-05-05 21:25 | 46.97222 | -113.33321 | 40050 ft | 460 kts | 295° |
| 2026-05-05 21:25 | 46.99190 | -113.42226 | 40022 ft | 460 kts | 295° |
| 2026-05-05 21:26 | 47.01149 | -113.51121 | 40024 ft | 460 kts | 295° |
| 2026-05-05 21:26 | 47.03106 | -113.60042 | 40021 ft | 459 kts | 295° |
| 2026-05-05 21:27 | 47.05048 | -113.68946 | 40023 ft | 457 kts | 296° |
| 2026-05-05 21:27 | 47.06977 | -113.77809 | 40029 ft | 455 kts | 296° |
| 2026-05-05 21:28 | 47.08889 | -113.86647 | 40037 ft | 455 kts | 296° |
| 2026-05-05 21:28 | 47.10799 | -113.95505 | 40042 ft | 455 kts | 296° |
| 2026-05-05 21:29 | 47.12703 | -114.04369 | 40032 ft | 455 kts | 296° |
| 2026-05-05 21:29 | 47.14599 | -114.13240 | 40024 ft | 455 kts | 296° |
| 2026-05-05 21:30 | 47.16495 | -114.22140 | 40008 ft | 459 kts | 296° |
| 2026-05-05 21:30 | 47.18403 | -114.31144 | 40011 ft | 464 kts | 295° |
| 2026-05-05 21:31 | 47.20315 | -114.40212 | 40021 ft | 467 kts | 295° |
| 2026-05-05 21:31 | 47.22232 | -114.49347 | 40023 ft | 467 kts | 295° |
| 2026-05-05 21:32 | 47.24127 | -114.58413 | 40003 ft | 467 kts | 295° |
| 2026-05-05 21:32 | 47.26028 | -114.67548 | 40002 ft | 467 kts | 295° |
| 2026-05-05 21:33 | 47.27919 | -114.76679 | 39962 ft | 466 kts | 295° |
| 2026-05-05 21:33 | 47.29803 | -114.85822 | 39993 ft | 466 kts | 295° |
| 2026-05-05 21:34 | 47.31682 | -114.94976 | 39986 ft | 466 kts | 295° |
| 2026-05-05 21:34 | 47.33542 | -115.04070 | 39956 ft | 466 kts | 294° |
| 2026-05-05 21:35 | 47.35405 | -115.13233 | 39958 ft | 467 kts | 294° |
| 2026-05-05 21:35 | 47.37261 | -115.22408 | 39947 ft | 468 kts | 294° |
| 2026-05-05 21:36 | 47.39112 | -115.31582 | 39938 ft | 468 kts | 294° |
| 2026-05-05 21:36 | 47.40961 | -115.40801 | 39938 ft | 468 kts | 294° |
| 2026-05-05 21:37 | 47.42804 | -115.50027 | 39919 ft | 469 kts | 294° |
| 2026-05-05 21:37 | 47.44468 | -115.58396 | 39916 ft | 469 kts | 294° |
| 2026-05-05 21:38 | 47.45911 | -115.67849 | 39923 ft | 480 kts | 284° |
| 2026-05-05 21:38 | 47.46536 | -115.77699 | 39917 ft | 482 kts | 283° |
| 2026-05-05 21:39 | 47.47134 | -115.87563 | 39908 ft | 482 kts | 283° |
| 2026-05-05 21:39 | 47.47726 | -115.97413 | 39924 ft | 482 kts | 283° |
| 2026-05-05 21:40 | 47.48314 | -116.07254 | 39940 ft | 481 kts | 283° |
| 2026-05-05 21:40 | 47.48894 | -116.17106 | 39947 ft | 481 kts | 283° |
| 2026-05-05 21:41 | 47.49472 | -116.26984 | 39951 ft | 482 kts | 283° |
| 2026-05-05 21:41 | 47.50041 | -116.36847 | 39941 ft | 481 kts | 283° |
| 2026-05-05 21:42 | 47.50594 | -116.46711 | 39977 ft | 482 kts | 282° |
| 2026-05-05 21:42 | 47.51141 | -116.56565 | 39982 ft | 482 kts | 282° |
| 2026-05-05 21:43 | 47.51680 | -116.66426 | 40005 ft | 482 kts | 282° |
| 2026-05-05 21:43 | 47.52212 | -116.76293 | 40006 ft | 482 kts | 282° |
| 2026-05-05 21:44 | 47.52736 | -116.86183 | 39995 ft | 482 kts | 282° |
| 2026-05-05 21:44 | 47.53251 | -116.96078 | 40012 ft | 482 kts | 282° |
| 2026-05-05 21:45 | 47.53756 | -117.05925 | 39998 ft | 483 kts | 282° |
| 2026-05-05 21:45 | 47.54255 | -117.15831 | 39999 ft | 484 kts | 282° |
| 2026-05-05 21:46 | 47.54747 | -117.25770 | 39987 ft | 483 kts | 281° |
| 2026-05-05 21:46 | 47.55228 | -117.35673 | 39973 ft | 482 kts | 281° |
| 2026-05-05 21:47 | 47.55701 | -117.45576 | 40005 ft | 482 kts | 281° |
| 2026-05-05 21:47 | 47.56166 | -117.55469 | 40006 ft | 482 kts | 281° |
| 2026-05-05 21:48 | 47.56643 | -117.65365 | 39989 ft | 480 kts | 283° |